Terminal Aerodrome Forecast
Issued by NWS Sioux Falls, SD

Home | Current Version | Previous Version | Text Only | Print | Product List | Glossary On
Versions: 1 2 3 4 5 6 7 8 9 10 11 12 13 14
000
FTUS43 KFSD 131120
TAFFSD
TAF
KFSD 131120Z 1312/1412 31023G31KT P6SM BKN045
     FM131500 33027G36KT P6SM BKN020
     FM132300 34016G24KT P6SM BKN030
     FM140000 34014KT P6SM BKN035
     FM140200 34009KT P6SM BKN035
     FM140500 33007KT P6SM BKN050
     FM140800 31006KT P6SM BKN030=

USA.gov is the U.S. government's official web portal to all federal, state and local government web resources and services.